^^
Station Historical Data
Daily Summary for February 5, 2021 Units:  English    Metric   Both
Daily Weekly Monthly Yearly
  High: Low: Average:
Temperature: 33.3 °F 15.4 °F 22.9 °F
Dew Point: 31 °F 9.8 °F 19 °F
Humidity: 92% 72% 85%
Wind Speed: 18mph 5mph 10mph
Wind Gust: 21mph - -
Wind- - WSW
Pressure: 29.66 in 29.15 in -
Precipitation: 0.00 in    
 
 
Tabular Data for February 5, 2021
Time Temperature Dew Point Pressure Wind Wind Speed Wind Gust Humidity Rainfall Rate (Hourly) solar
00:00 32.1 °F 30 °F 29.23 in West 6 mph 8 mph 92% 0.00 in 0 W/m2
00:05 32.1 °F 30 °F 29.23 in ENE 6 mph 8 mph 92% 0.00 in 0 W/m2
00:10 32.2 °F 30.1 °F 29.23 in East 5 mph 7 mph 92% 0.00 in 0 W/m2
00:15 32.3 °F 30.2 °F 29.22 in ENE 5 mph 7 mph 92% 0.00 in 0 W/m2
00:20 32.5 °F 30.4 °F 29.22 in West 5 mph 6 mph 92% 0.00 in 0 W/m2
00:25 32.6 °F 30.5 °F 29.21 in NNW 5 mph 6 mph 92% 0.00 in 0 W/m2
00:30 32.8 °F 30.7 °F 29.21 in NW 5 mph 5 mph 92% 0.00 in 0 W/m2
00:35 33 °F 30.7 °F 29.21 in WNW 5 mph 5 mph 91% 0.00 in 0 W/m2
00:40 33.1 °F 30.8 °F 29.20 in ENE 6 mph 6 mph 91% 0.00 in 0 W/m2
00:45 33.2 °F 30.9 °F 29.20 in East 6 mph 6 mph 91% 0.00 in 0 W/m2
00:50 33.1 °F 30.8 °F 29.20 in SSW 6 mph 6 mph 91% 0.00 in 0 W/m2
00:55 33.3 °F 31 °F 29.19 in WNW 6 mph 7 mph 91% 0.00 in 0 W/m2
01:00 33.2 °F 30.9 °F 29.19 in ENE 6 mph 7 mph 91% 0.00 in 0 W/m2
01:05 33.2 °F 30.9 °F 29.19 in North 6 mph 7 mph 91% 0.00 in 0 W/m2
01:10 33.2 °F 30.9 °F 29.18 in NNW 6 mph 8 mph 91% 0.00 in 0 W/m2
01:15 33.2 °F 30.9 °F 29.18 in NNE 6 mph 8 mph 91% 0.00 in 0 W/m2
01:20 33.2 °F 30.9 °F 29.18 in NNW 6 mph 6 mph 91% 0.00 in 0 W/m2
01:25 33.2 °F 30.9 °F 29.17 in North 6 mph 6 mph 91% 0.00 in 0 W/m2
01:30 33.2 °F 30.9 °F 29.17 in North 6 mph 8 mph 91% 0.00 in 0 W/m2
01:35 33.2 °F 30.9 °F 29.17 in NW 5 mph 8 mph 91% 0.00 in 0 W/m2
01:40 33.2 °F 30.9 °F 29.17 in SSE 5 mph 5 mph 91% 0.00 in 0 W/m2
01:45 33.1 °F 30.8 °F 29.17 in North 6 mph 6 mph 91% 0.00 in 0 W/m2
01:50 33.1 °F 30.8 °F 29.17 in NW 5 mph 6 mph 91% 0.00 in 0 W/m2
01:55 33.1 °F 30.8 °F 29.17 in North 5 mph 6 mph 91% 0.00 in 0 W/m2
02:00 33.2 °F 30.9 °F 29.16 in North 6 mph 6 mph 91% 0.00 in 0 W/m2
02:05 33.1 °F 30.8 °F 29.16 in NNW 6 mph 6 mph 91% 0.00 in 0 W/m2
02:10 33 °F 30.7 °F 29.16 in NE 6 mph 7 mph 91% 0.00 in 0 W/m2
02:15 33.1 °F 30.8 °F 29.16 in NW 5 mph 7 mph 91% 0.00 in 0 W/m2
02:20 33.1 °F 30.8 °F 29.16 in North 5 mph 8 mph 91% 0.00 in 0 W/m2
02:25 33.1 °F 30.8 °F 29.16 in North 6 mph 8 mph 91% 0.00 in 0 W/m2
02:30 33.2 °F 30.9 °F 29.16 in North 7 mph 8 mph 91% 0.00 in 0 W/m2
02:35 33.1 °F 30.8 °F 29.16 in WSW 6 mph 9 mph 91% 0.00 in 0 W/m2
02:40 33 °F 30.7 °F 29.16 in NNE 6 mph 8 mph 91% 0.00 in 0 W/m2
02:45 33 °F 30.7 °F 29.16 in NNW 6 mph 8 mph 91% 0.00 in 0 W/m2
02:50 32.8 °F 30.5 °F 29.16 in NNE 6 mph 6 mph 91% 0.00 in 0 W/m2
02:55 32.8 °F 30.7 °F 29.15 in ESE 6 mph 6 mph 92% 0.00 in 0 W/m2
03:00 32.8 °F 30.7 °F 29.15 in North 6 mph 6 mph 92% 0.00 in 0 W/m2
03:05 32.8 °F 30.7 °F 29.15 in SSW 5 mph 6 mph 92% 0.00 in 0 W/m2
03:10 32.8 °F 30.7 °F 29.15 in NE 5 mph 6 mph 92% 0.00 in 0 W/m2
03:15 32.7 °F 30.6 °F 29.15 in NE 6 mph 7 mph 92% 0.00 in 0 W/m2
03:20 32.7 °F 30.6 °F 29.15 in East 6 mph 7 mph 92% 0.00 in 0 W/m2
03:25 32.7 °F 30.6 °F 29.15 in South 7 mph 8 mph 92% 0.00 in 0 W/m2
03:30 32.7 °F 30.6 °F 29.15 in South 7 mph 8 mph 92% 0.00 in 0 W/m2
03:35 32.7 °F 30.6 °F 29.15 in South 8 mph 10 mph 92% 0.00 in 0 W/m2
03:40 32.7 °F 30.6 °F 29.15 in SW 11 mph 14 mph 92% 0.00 in 0 W/m2
03:45 32.7 °F 30.6 °F 29.15 in SW 14 mph 14 mph 92% 0.00 in 0 W/m2
03:50 32.7 °F 30.6 °F 29.15 in SSW 16 mph 16 mph 92% 0.00 in 0 W/m2
03:55 32.8 °F 30.7 °F 29.15 in SW 17 mph 17 mph 92% 0.00 in 0 W/m2
04:00 32.8 °F 30.7 °F 29.15 in SW 18 mph 18 mph 92% 0.00 in 0 W/m2
04:05 32.8 °F 30.5 °F 29.16 in SSW 17 mph 18 mph 91% 0.00 in 0 W/m2
04:10 32.6 °F 30.3 °F 29.16 in SW 15 mph 15 mph 91% 0.00 in 0 W/m2
04:15 32.5 °F 30.2 °F 29.17 in SW 13 mph 15 mph 91% 0.00 in 0 W/m2
04:20 32.3 °F 30 °F 29.17 in SSW 14 mph 20 mph 91% 0.00 in 0 W/m2
04:25 32.1 °F 29.8 °F 29.17 in SW 14 mph 20 mph 91% 0.00 in 0 W/m2
04:30 31.9 °F 29.6 °F 29.18 in WSW 13 mph 16 mph 91% 0.00 in 0 W/m2
04:35 31.7 °F 29.4 °F 29.18 in SW 13 mph 16 mph 91% 0.00 in 0 W/m2
04:40 31.4 °F 29.1 °F 29.18 in WSW 14 mph 14 mph 91% 0.00 in 0 W/m2
04:45 31.1 °F 28.8 °F 29.19 in WNW 14 mph 14 mph 91% 0.00 in 0 W/m2
04:50 30.6 °F 28.3 °F 29.19 in SSW 13 mph 13 mph 91% 0.00 in 0 W/m2
04:55 30.4 °F 28.1 °F 29.20 in SSW 13 mph 13 mph 91% 0.00 in 0 W/m2
05:00 29.9 °F 27.3 °F 29.21 in WNW 13 mph 13 mph 90% 0.00 in 0 W/m2
05:05 29.5 °F 26.9 °F 29.21 in WSW 13 mph 16 mph 90% 0.00 in 0 W/m2
05:10 29 °F 26.4 °F 29.21 in West 13 mph 17 mph 90% 0.00 in 0 W/m2
05:15 28.7 °F 26.1 °F 29.22 in WSW 13 mph 17 mph 90% 0.00 in 0 W/m2
05:20 28.5 °F 25.9 °F 29.22 in SSW 13 mph 13 mph 90% 0.00 in 0 W/m2
05:25 28.4 °F 26.1 °F 29.23 in NW 14 mph 14 mph 91% 0.00 in 0 W/m2
05:30 28.5 °F 26.2 °F 29.23 in West 13 mph 14 mph 91% 0.00 in 0 W/m2
05:35 28.2 °F 25.9 °F 29.23 in WNW 12 mph 19 mph 91% 0.00 in 0 W/m2
05:40 27.9 °F 25.6 °F 29.23 in WSW 12 mph 14 mph 91% 0.00 in 0 W/m2
05:45 27.6 °F 25.3 °F 29.24 in South 12 mph 14 mph 91% 0.00 in 0 W/m2
05:50 27.2 °F 24.9 °F 29.24 in SW 13 mph 14 mph 91% 0.00 in 0 W/m2
05:55 27.1 °F 24.8 °F 29.25 in West 13 mph 14 mph 91% 0.00 in 0 W/m2
06:00 26.9 °F 24.6 °F 29.25 in SSW 12 mph 13 mph 91% 0.00 in 0 W/m2
06:05 26.7 °F 24.7 °F 29.25 in West 12 mph 16 mph 92% 0.00 in 0 W/m2
06:10 26.6 °F 24.3 °F 29.26 in West 12 mph 13 mph 91% 0.00 in 0 W/m2
06:15 26.4 °F 24.4 °F 29.26 in WNW 11 mph 13 mph 92% 0.00 in 0 W/m2
06:20 26.2 °F 24.2 °F 29.26 in SW 12 mph 12 mph 92% 0.00 in 0 W/m2
06:25 25.9 °F 23.6 °F 29.27 in SSW 12 mph 12 mph 91% 0.00 in 0 W/m2
06:30 25.8 °F 23.5 °F 29.27 in WSW 14 mph 14 mph 91% 0.00 in 0 W/m2
06:35 25.6 °F 23.3 °F 29.28 in West 15 mph 15 mph 91% 0.00 in 0 W/m2
06:40 25.7 °F 23.2 °F 29.28 in West 15 mph 15 mph 90% 0.00 in 0 W/m2
06:45 25.8 °F 23 °F 29.28 in WSW 14 mph 18 mph 89% 0.00 in 0 W/m2
06:50 26 °F 23.2 °F 29.28 in SW 14 mph 16 mph 89% 0.00 in 0 W/m2
06:55 26.1 °F 23 °F 29.28 in SW 14 mph 16 mph 88% 0.00 in 0 W/m2
07:00 26.2 °F 22.9 °F 29.29 in SW 13 mph 13 mph 87% 0.00 in 0 W/m2
07:10 26.1 °F 22.5 °F 29.29 in NW 13 mph 13 mph 86% 0.00 in 0 W/m2
07:15 26.1 °F 22.5 °F 29.30 in WSW 13 mph 13 mph 86% 0.00 in 0 W/m2
07:20 26.1 °F 22.5 °F 29.29 in WSW 13 mph 13 mph 86% 0.00 in 0 W/m2
07:25 26 °F 22.1 °F 29.30 in West 13 mph 14 mph 85% 0.00 in 0 W/m2
07:30 25.9 °F 22 °F 29.30 in WSW 14 mph 14 mph 85% 0.00 in 0 W/m2
07:35 25.7 °F 21.5 °F 29.30 in West 14 mph 17 mph 84% 0.00 in 0 W/m2
07:40 25.6 °F 21.4 °F 29.31 in WSW 13 mph 13 mph 84% 0.00 in 0 W/m2
07:45 25.6 °F 21.4 °F 29.31 in WNW 13 mph 13 mph 84% 0.00 in 0 W/m2
07:50 25.4 °F 21 °F 29.31 in WSW 13 mph 16 mph 83% 0.00 in 0 W/m2
07:55 25.3 °F 20.9 °F 29.31 in WSW 13 mph 16 mph 83% 0.00 in 5 W/m2
08:00 25.3 °F 20.9 °F 29.32 in WNW 13 mph 13 mph 83% 0.00 in 7 W/m2
08:05 25.2 °F 21 °F 29.32 in WSW 12 mph 16 mph 84% 0.00 in 9 W/m2
08:10 25.2 °F 20.8 °F 29.33 in WNW 13 mph 13 mph 83% 0.00 in 12 W/m2
08:15 25 °F 20.6 °F 29.33 in West 13 mph 14 mph 83% 0.00 in 11 W/m2
08:20 25 °F 20.6 °F 29.33 in WNW 12 mph 12 mph 83% 0.00 in 12 W/m2
08:25 25 °F 20.6 °F 29.33 in SW 12 mph 12 mph 83% 0.00 in 18 W/m2
08:30 24.9 °F 20.2 °F 29.33 in WSW 12 mph 20 mph 82% 0.00 in 23 W/m2
08:35 24.8 °F 20.1 °F 29.33 in SW 12 mph 20 mph 82% 0.00 in 28 W/m2
08:40 24.7 °F 20 °F 29.34 in West 12 mph 19 mph 82% 0.00 in 25 W/m2
08:45 24.7 °F 20 °F 29.34 in WSW 12 mph 19 mph 82% 0.00 in 28 W/m2
08:50 24.6 °F 19.9 °F 29.34 in West 11 mph 11 mph 82% 0.00 in 23 W/m2
08:55 24.6 °F 19.9 °F 29.35 in SW 10 mph 14 mph 82% 0.00 in 25 W/m2
09:00 24.5 °F 19.8 °F 29.35 in SW 11 mph 11 mph 82% 0.00 in 32 W/m2
09:05 24.4 °F 19.4 °F 29.35 in WSW 11 mph 18 mph 81% 0.00 in 39 W/m2
09:10 24.4 °F 19.1 °F 29.35 in WSW 11 mph 11 mph 80% 0.00 in 46 W/m2
09:15 24.4 °F 19.4 °F 29.35 in WNW 10 mph 14 mph 81% 0.00 in 47 W/m2
09:20 24.4 °F 19.1 °F 29.36 in WSW 10 mph 10 mph 80% 0.00 in 49 W/m2
09:25 24.3 °F 19 °F 29.36 in WSW 11 mph 11 mph 80% 0.00 in 53 W/m2
09:30 24.4 °F 19.1 °F 29.36 in WSW 11 mph 11 mph 80% 0.00 in 58 W/m2
09:35 24.4 °F 19.4 °F 29.36 in WNW 9 mph 11 mph 81% 0.00 in 69 W/m2
09:40 24.4 °F 19.7 °F 29.36 in SW 9 mph 10 mph 82% 0.00 in 88 W/m2
09:45 24.3 °F 20.2 °F 29.36 in WSW 10 mph 10 mph 84% 0.00 in 93 W/m2
09:50 24.2 °F 19.8 °F 29.36 in West 11 mph 11 mph 83% 0.00 in 107 W/m2
09:55 23.6 °F 19.5 °F 29.36 in West 12 mph 13 mph 84% 0.00 in 116 W/m2
10:00 23.3 °F 19.5 °F 29.37 in WSW 12 mph 19 mph 85% 0.00 in 118 W/m2
10:05 23.1 °F 19 °F 29.37 in SSW 12 mph 19 mph 84% 0.00 in 132 W/m2
10:10 23.1 °F 19 °F 29.37 in WSW 13 mph 13 mph 84% 0.00 in 135 W/m2
10:15 22.9 °F 18.8 °F 29.37 in WNW 13 mph 13 mph 84% 0.00 in 141 W/m2
10:20 22.8 °F 18.1 °F 29.37 in NW 13 mph 13 mph 82% 0.00 in 137 W/m2
10:25 22.6 °F 17.6 °F 29.38 in West 12 mph 13 mph 81% 0.00 in 142 W/m2
10:30 22.7 °F 17.2 °F 29.39 in WNW 12 mph 12 mph 79% 0.00 in 163 W/m2
10:35 22.8 °F 16.7 °F 29.39 in WSW 12 mph 12 mph 77% 0.00 in 193 W/m2
10:40 22.9 °F 16.8 °F 29.39 in West 11 mph 11 mph 77% 0.00 in 206 W/m2
10:45 22.9 °F 16.5 °F 29.39 in SW 11 mph 11 mph 76% 0.00 in 218 W/m2
10:50 22.8 °F 16.7 °F 29.39 in SW 12 mph 12 mph 77% 0.00 in 223 W/m2
10:55 22.5 °F 16.1 °F 29.39 in WSW 11 mph 12 mph 76% 0.00 in 218 W/m2
11:00 22.4 °F 16 °F 29.39 in West 11 mph 14 mph 76% 0.00 in 216 W/m2
11:05 22.3 °F 15.6 °F 29.40 in SW 12 mph 14 mph 75% 0.00 in 214 W/m2
11:10 22 °F 15.3 °F 29.41 in SW 13 mph 16 mph 75% 0.00 in 218 W/m2
11:15 21.8 °F 14.8 °F 29.40 in West 12 mph 16 mph 74% 0.00 in 214 W/m2
11:20 21.8 °F 15.4 °F 29.41 in WSW 11 mph 11 mph 76% 0.00 in 229 W/m2
11:25 22 °F 14.7 °F 29.41 in WNW 11 mph 11 mph 73% 0.00 in 209 W/m2
11:30 22 °F 14.3 °F 29.41 in WSW 13 mph 13 mph 72% 0.00 in 232 W/m2
11:35 22 °F 14.3 °F 29.41 in WSW 12 mph 18 mph 72% 0.00 in 211 W/m2
11:40 21.8 °F 14.5 °F 29.42 in NW 12 mph 12 mph 73% 0.00 in 192 W/m2
11:45 21.6 °F 14.6 °F 29.42 in West 12 mph 12 mph 74% 0.00 in 178 W/m2
11:50 21.4 °F 14.4 °F 29.42 in West 12 mph 12 mph 74% 0.00 in 172 W/m2
11:55 21.3 °F 14.3 °F 29.42 in West 11 mph 12 mph 74% 0.00 in 179 W/m2
12:00 21.2 °F 14.5 °F 29.42 in WNW 11 mph 15 mph 75% 0.00 in 158 W/m2
12:05 21.2 °F 14.5 °F 29.42 in SW 10 mph 15 mph 75% 0.00 in 153 W/m2
12:10 21.1 °F 14.7 °F 29.42 in West 9 mph 12 mph 76% 0.00 in 144 W/m2
12:15 20.9 °F 14.8 °F 29.43 in West 10 mph 12 mph 77% 0.00 in 123 W/m2
12:20 20.7 °F 14.9 °F 29.43 in West 9 mph 9 mph 78% 0.00 in 132 W/m2
12:25 20.6 °F 15.1 °F 29.43 in West 9 mph 9 mph 79% 0.00 in 155 W/m2
12:30 20.6 °F 15.1 °F 29.43 in WSW 8 mph 9 mph 79% 0.00 in 163 W/m2
12:35 20.4 °F 14.9 °F 29.43 in WSW 9 mph 10 mph 79% 0.00 in 192 W/m2
12:40 20.5 °F 13.8 °F 29.43 in WSW 10 mph 10 mph 75% 0.00 in 178 W/m2
12:45 20.6 °F 13.9 °F 29.44 in West 10 mph 10 mph 75% 0.00 in 183 W/m2
12:50 20.4 °F 13.4 °F 29.43 in WNW 10 mph 10 mph 74% 0.00 in 186 W/m2
12:55 20.5 °F 13.8 °F 29.44 in WNW 10 mph 10 mph 75% 0.00 in 179 W/m2
13:00 20.6 °F 13.9 °F 29.44 in SW 9 mph 12 mph 75% 0.00 in 163 W/m2
13:05 20.4 °F 14.3 °F 29.44 in West 10 mph 12 mph 77% 0.00 in 176 W/m2
13:10 20.4 °F 15.2 °F 29.44 in WSW 10 mph 10 mph 80% 0.00 in 193 W/m2
13:15 20.5 °F 15 °F 29.44 in WNW 11 mph 11 mph 79% 0.00 in 206 W/m2
13:20 20.5 °F 15 °F 29.45 in SW 11 mph 11 mph 79% 0.00 in 185 W/m2
13:25 20.4 °F 14.6 °F 29.44 in West 10 mph 11 mph 78% 0.00 in 221 W/m2
13:30 20.2 °F 14.1 °F 29.45 in West 9 mph 9 mph 77% 0.00 in 199 W/m2
13:35 20.1 °F 14.6 °F 29.45 in WSW 10 mph 14 mph 79% 0.00 in 216 W/m2
13:40 20.1 °F 14.9 °F 29.45 in SW 10 mph 12 mph 80% 0.00 in 225 W/m2
13:45 20.2 °F 15 °F 29.45 in SW 9 mph 12 mph 80% 0.00 in 251 W/m2
13:50 20.2 °F 14.7 °F 29.45 in West 10 mph 10 mph 79% 0.00 in 225 W/m2
13:55 20 °F 14.2 °F 29.45 in SSW 10 mph 10 mph 78% 0.00 in 243 W/m2
14:00 20 °F 14.5 °F 29.45 in WSW 10 mph 14 mph 79% 0.00 in 269 W/m2
14:05 20.2 °F 14.4 °F 29.45 in SW 10 mph 14 mph 78% 0.00 in 274 W/m2
14:10 20 °F 14.5 °F 29.45 in SSW 10 mph 10 mph 79% 0.00 in 257 W/m2
14:15 20 °F 14.5 °F 29.45 in WSW 10 mph 13 mph 79% 0.00 in 299 W/m2
14:20 20.1 °F 14.3 °F 29.45 in SSW 11 mph 11 mph 78% 0.00 in 244 W/m2
14:25 20 °F 14.5 °F 29.45 in WSW 11 mph 11 mph 79% 0.00 in 230 W/m2
14:30 20 °F 14.5 °F 29.45 in West 10 mph 17 mph 79% 0.00 in 155 W/m2
14:35 19.9 °F 13.9 °F 29.45 in SW 10 mph 17 mph 77% 0.00 in 178 W/m2
14:40 20 °F 13.9 °F 29.46 in SSE 11 mph 11 mph 77% 0.00 in 142 W/m2
14:45 19.7 °F 14.5 °F 29.46 in SW 11 mph 14 mph 80% 0.00 in 183 W/m2
14:50 19.5 °F 14.6 °F 29.45 in SW 13 mph 13 mph 81% 0.00 in 158 W/m2
14:55 19.3 °F 14.7 °F 29.46 in WSW 15 mph 15 mph 82% 0.00 in 142 W/m2
15:00 19.1 °F 14.8 °F 29.46 in SSW 15 mph 15 mph 83% 0.00 in 132 W/m2
15:05 18.5 °F 14.7 °F 29.46 in West 15 mph 15 mph 85% 0.00 in 118 W/m2
15:10 18.2 °F 14.7 °F 29.46 in SW 15 mph 16 mph 86% 0.00 in 109 W/m2
15:15 18.1 °F 14.9 °F 29.46 in West 14 mph 16 mph 87% 0.00 in 199 W/m2
15:20 18.2 °F 15 °F 29.47 in SW 12 mph 12 mph 87% 0.00 in 232 W/m2
15:25 18.3 °F 15.3 °F 29.47 in WNW 11 mph 12 mph 88% 0.00 in 209 W/m2
15:30 18.2 °F 15.2 °F 29.47 in SW 11 mph 15 mph 88% 0.00 in 221 W/m2
15:35 18.3 °F 15.1 °F 29.47 in SSW 11 mph 15 mph 87% 0.00 in 213 W/m2
15:40 18.2 °F 15 °F 29.47 in SSW 11 mph 11 mph 87% 0.00 in 176 W/m2
15:45 18.1 °F 14.9 °F 29.48 in South 11 mph 11 mph 87% 0.00 in 142 W/m2
15:50 18.1 °F 14.9 °F 29.48 in SW 13 mph 17 mph 87% 0.00 in 123 W/m2
15:55 18.3 °F 15.1 °F 29.48 in WSW 13 mph 17 mph 87% 0.00 in 90 W/m2
16:00 18.1 °F 14.9 °F 29.48 in West 12 mph 17 mph 87% 0.00 in 88 W/m2
16:05 18 °F 14.8 °F 29.48 in SW 13 mph 19 mph 87% 0.00 in 88 W/m2
16:10 18 °F 15 °F 29.49 in SW 14 mph 21 mph 88% 0.00 in 77 W/m2
16:15 17.9 °F 14.9 °F 29.49 in SW 12 mph 21 mph 88% 0.00 in 70 W/m2
16:20 17.9 °F 14.9 °F 29.49 in SSW 12 mph 12 mph 88% 0.00 in 70 W/m2
16:25 17.8 °F 14.8 °F 29.49 in SW 11 mph 12 mph 88% 0.00 in 70 W/m2
16:30 17.8 °F 14.8 °F 29.50 in SW 10 mph 13 mph 88% 0.00 in 51 W/m2
16:35 17.6 °F 14.7 °F 29.50 in SW 10 mph 13 mph 88% 0.00 in 53 W/m2
16:40 17.5 °F 14.6 °F 29.51 in WSW 11 mph 11 mph 88% 0.00 in 49 W/m2
16:45 17.4 °F 14.5 °F 29.51 in SW 11 mph 12 mph 88% 0.00 in 39 W/m2
16:50 17.4 °F 14.5 °F 29.51 in WSW 11 mph 19 mph 88% 0.00 in 35 W/m2
16:55 17.5 °F 14.3 °F 29.51 in WSW 11 mph 19 mph 87% 0.00 in 26 W/m2
17:00 17.6 °F 14.4 °F 29.51 in WSW 11 mph 11 mph 87% 0.00 in 25 W/m2
17:05 17.6 °F 14.4 °F 29.51 in WSW 10 mph 13 mph 87% 0.00 in 21 W/m2
17:10 17.6 °F 14.1 °F 29.51 in SSW 10 mph 12 mph 86% 0.00 in 21 W/m2
17:15 17.6 °F 14.1 °F 29.51 in WSW 9 mph 15 mph 86% 0.00 in 16 W/m2
17:20 17.5 °F 14 °F 29.51 in SW 9 mph 17 mph 86% 0.00 in 18 W/m2
17:25 17.5 °F 14.3 °F 29.52 in SSW 9 mph 17 mph 87% 0.00 in 16 W/m2
17:30 17.5 °F 14.3 °F 29.52 in SW 8 mph 12 mph 87% 0.00 in 16 W/m2
17:35 17.4 °F 14.2 °F 29.52 in SW 9 mph 12 mph 87% 0.00 in 11 W/m2
17:40 17.5 °F 14.3 °F 29.53 in WSW 11 mph 11 mph 87% 0.00 in 5 W/m2
17:45 17.3 °F 14.1 °F 29.53 in WSW 11 mph 14 mph 87% 0.00 in 5 W/m2
17:50 17 °F 13.8 °F 29.53 in West 9 mph 9 mph 87% 0.00 in 0 W/m2
17:55 16.9 °F 14 °F 29.53 in WSW 9 mph 13 mph 88% 0.00 in 0 W/m2
18:00 16.8 °F 13.9 °F 29.54 in South 10 mph 10 mph 88% 0.00 in 0 W/m2
18:05 16.7 °F 13.8 °F 29.54 in SW 9 mph 10 mph 88% 0.00 in 0 W/m2
18:10 16.7 °F 13.8 °F 29.54 in WSW 9 mph 12 mph 88% 0.00 in 0 W/m2
18:15 16.8 °F 13.9 °F 29.54 in WSW 8 mph 12 mph 88% 0.00 in 0 W/m2
18:20 16.8 °F 13.9 °F 29.55 in SSW 8 mph 10 mph 88% 0.00 in 0 W/m2
18:25 16.9 °F 14 °F 29.55 in West 8 mph 10 mph 88% 0.00 in 0 W/m2
18:30 16.7 °F 13.8 °F 29.56 in West 8 mph 8 mph 88% 0.00 in 0 W/m2
18:35 16.5 °F 13.6 °F 29.56 in West 9 mph 14 mph 88% 0.00 in 0 W/m2
18:40 16.2 °F 13 °F 29.56 in North 9 mph 9 mph 87% 0.00 in 0 W/m2
18:45 16.1 °F 12.7 °F 29.56 in SSE 10 mph 10 mph 86% 0.00 in 0 W/m2
18:50 16.2 °F 12.5 °F 29.57 in SW 11 mph 11 mph 85% 0.00 in 0 W/m2
18:55 16.4 °F 12.4 °F 29.57 in WSW 10 mph 11 mph 84% 0.00 in 0 W/m2
19:00 16.5 °F 12.2 °F 29.57 in West 9 mph 9 mph 83% 0.00 in 0 W/m2
19:05 16.6 °F 12.3 °F 29.57 in West 9 mph 9 mph 83% 0.00 in 0 W/m2
19:10 16.8 °F 12.8 °F 29.57 in WSW 8 mph 8 mph 84% 0.00 in 0 W/m2
19:15 17 °F 13 °F 29.57 in West 8 mph 8 mph 84% 0.00 in 0 W/m2
19:20 17 °F 13 °F 29.58 in WSW 9 mph 10 mph 84% 0.00 in 0 W/m2
19:25 17.1 °F 13.1 °F 29.58 in SW 8 mph 10 mph 84% 0.00 in 0 W/m2
19:30 17 °F 13 °F 29.58 in WSW 9 mph 9 mph 84% 0.00 in 0 W/m2
19:35 16.9 °F 12.9 °F 29.58 in SW 9 mph 9 mph 84% 0.00 in 0 W/m2
19:40 16.8 °F 12.8 °F 29.58 in SSW 9 mph 9 mph 84% 0.00 in 0 W/m2
19:45 16.8 °F 12.8 °F 29.58 in WSW 9 mph 13 mph 84% 0.00 in 0 W/m2
19:50 16.9 °F 13.2 °F 29.58 in SW 10 mph 13 mph 85% 0.00 in 0 W/m2
19:55 17 °F 13.3 °F 29.58 in SW 10 mph 13 mph 85% 0.00 in 0 W/m2
20:00 17.1 °F 13.4 °F 29.59 in SW 9 mph 9 mph 85% 0.00 in 0 W/m2
20:05 17.1 °F 13.4 °F 29.59 in SW 9 mph 9 mph 85% 0.00 in 0 W/m2
20:10 17 °F 13.3 °F 29.59 in WSW 9 mph 9 mph 85% 0.00 in 0 W/m2
20:15 16.9 °F 13.2 °F 29.59 in WSW 8 mph 12 mph 85% 0.00 in 0 W/m2
20:20 16.8 °F 13.3 °F 29.59 in WSW 8 mph 9 mph 86% 0.00 in 0 W/m2
20:25 16.8 °F 13.1 °F 29.60 in SSW 8 mph 9 mph 85% 0.00 in 0 W/m2
20:30 16.9 °F 13.4 °F 29.60 in WSW 8 mph 10 mph 86% 0.00 in 0 W/m2
20:35 17 °F 13.5 °F 29.60 in SW 8 mph 10 mph 86% 0.00 in 0 W/m2
20:40 17 °F 13.5 °F 29.61 in West 8 mph 8 mph 86% 0.00 in 0 W/m2
20:45 17 °F 13.5 °F 29.61 in SW 8 mph 9 mph 86% 0.00 in 0 W/m2
20:50 16.8 °F 13.3 °F 29.61 in WSW 9 mph 9 mph 86% 0.00 in 0 W/m2
20:55 16.8 °F 13.3 °F 29.61 in WNW 8 mph 9 mph 86% 0.00 in 0 W/m2
21:00 16.8 °F 13.3 °F 29.61 in West 7 mph 7 mph 86% 0.00 in 0 W/m2
21:05 16.8 °F 13.3 °F 29.61 in West 7 mph 10 mph 86% 0.00 in 0 W/m2
21:10 16.7 °F 13.2 °F 29.61 in WSW 8 mph 9 mph 86% 0.00 in 0 W/m2
21:15 16.5 °F 12.8 °F 29.61 in NW 9 mph 11 mph 85% 0.00 in 0 W/m2
21:20 16.5 °F 12.5 °F 29.62 in WSW 9 mph 9 mph 84% 0.00 in 0 W/m2
21:25 16.4 °F 12.1 °F 29.62 in WSW 8 mph 9 mph 83% 0.00 in 0 W/m2
21:30 16.4 °F 12.1 °F 29.62 in West 8 mph 14 mph 83% 0.00 in 0 W/m2
21:35 16.2 °F 11.9 °F 29.62 in WSW 9 mph 14 mph 83% 0.00 in 0 W/m2
21:40 16.1 °F 11.8 °F 29.62 in WSW 8 mph 8 mph 83% 0.00 in 0 W/m2
21:45 16 °F 11.5 °F 29.62 in West 7 mph 8 mph 82% 0.00 in 0 W/m2
21:50 15.9 °F 11.4 °F 29.63 in West 7 mph 8 mph 82% 0.00 in 0 W/m2
21:55 15.9 °F 11.4 °F 29.63 in WSW 8 mph 13 mph 82% 0.00 in 0 W/m2
22:00 16 °F 11.2 °F 29.63 in SW 9 mph 9 mph 81% 0.00 in 0 W/m2
22:05 16.1 °F 11.3 °F 29.63 in WSW 8 mph 12 mph 81% 0.00 in 0 W/m2
22:10 16 °F 11.2 °F 29.63 in SW 7 mph 8 mph 81% 0.00 in 0 W/m2
22:15 16 °F 11.2 °F 29.63 in WSW 8 mph 8 mph 81% 0.00 in 0 W/m2
22:20 15.9 °F 11.1 °F 29.63 in SSW 7 mph 7 mph 81% 0.00 in 0 W/m2
22:25 15.9 °F 10.8 °F 29.63 in WSW 8 mph 8 mph 80% 0.00 in 0 W/m2
22:30 16 °F 10.9 °F 29.64 in WSW 8 mph 12 mph 80% 0.00 in 0 W/m2
22:35 16 °F 10.9 °F 29.64 in SW 9 mph 12 mph 80% 0.00 in 0 W/m2
22:40 15.9 °F 10.5 °F 29.64 in West 8 mph 10 mph 79% 0.00 in 0 W/m2
22:45 15.9 °F 10.3 °F 29.64 in SW 8 mph 11 mph 78% 0.00 in 0 W/m2
22:50 15.9 °F 10 °F 29.64 in West 9 mph 9 mph 77% 0.00 in 0 W/m2
22:55 15.9 °F 10 °F 29.64 in West 9 mph 9 mph 77% 0.00 in 0 W/m2
23:00 16 °F 10.1 °F 29.64 in West 8 mph 13 mph 77% 0.00 in 0 W/m2
23:05 16 °F 10.1 °F 29.64 in WSW 8 mph 13 mph 77% 0.00 in 0 W/m2
23:10 15.9 °F 10 °F 29.65 in West 8 mph 11 mph 77% 0.00 in 0 W/m2
23:15 15.7 °F 9.8 °F 29.65 in West 9 mph 13 mph 77% 0.00 in 0 W/m2
23:20 15.6 °F 10 °F 29.65 in SW 9 mph 13 mph 78% 0.00 in 0 W/m2
23:25 15.5 °F 10.1 °F 29.65 in West 9 mph 13 mph 79% 0.00 in 0 W/m2
23:30 15.4 °F 10.3 °F 29.65 in WSW 8 mph 8 mph 80% 0.00 in 0 W/m2
23:35 15.4 °F 10.3 °F 29.65 in WSW 8 mph 9 mph 80% 0.00 in 0 W/m2
23:40 15.4 °F 10.1 °F 29.65 in West 8 mph 9 mph 79% 0.00 in 0 W/m2
23:45 15.4 °F 10.1 °F 29.65 in SW 8 mph 9 mph 79% 0.00 in 0 W/m2
23:50 15.4 °F 10.3 °F 29.65 in West 7 mph 8 mph 80% 0.00 in 0 W/m2
23:55 15.4 °F 10.3 °F 29.66 in WSW 7 mph 11 mph 80% 0.00 in 0 W/m2
Sand Point, Michigan, USA
Compliments of Weather Underground - 2 mb